Bergamot Ace — ZGAS5 — position and weather

sailwx.info

Track history (hours):
 
Tides and Currents Weather Stations Pressure Air Temp Water Temp Dewpoint Dewpoint Depression Visibility Wind Speed Wind Dir Waves Ship Positions

Bergamot Ace

Last reported at 2014-Oct-02 01:16 UTC. Time now 2014-Oct-20 11:23 UTC.
Position S 33°59' E 018°06'.
Warning: this ship's position is 18 days out of date.

Length 186 m; draft 7.8 m.

Type: Cargo ship. MMSI: 319740000.

Date/timePositionNaut miles runAvg speedWind from/ knotsBaromVisibWave heightAir tempDewpointWater temp
2014-Oct-02 01:16S 33°59' E 018°06'1318.5
2014-Oct-02 00:33S 34°11' E 018°12'3618.0
2014-Oct-01 22:32S 34°37' E 018°44'18217.4
2014-Oct-01 12:06S 34°41' E 022°25'4817.6
2014-Oct-01 09:22S 34°32' E 023°22'45715.9
2014-Sep-30 04:31S 30°19' E 030°53'1515.5
2014-Sep-30 03:33S 30°06' E 031°01'1413.9
2014-Sep-30 02:33S 29°52' E 031°07'4 3.5
2014-Sep-30 01:29S 29°52' E 031°02'0 0.0
2014-Sep-30 00:23S 29°52' E 031°02'0 0.0
2014-Sep-29 23:29S 29°52' E 031°02'0 0.0
2014-Sep-29 22:29S 29°52' E 031°02'0 0.0
2014-Sep-29 21:23S 29°52' E 031°02'0 0.0
2014-Sep-29 20:05S 29°52' E 031°02'0 0.0
2014-Sep-29 19:23S 29°52' E 031°02'0 0.0
2014-Sep-29 18:23S 29°52' E 031°02'0 0.0
2014-Sep-29 17:29S 29°52' E 031°02'0 0.0
2014-Sep-29 16:29S 29°52' E 031°02'0 0.0
2014-Sep-29 15:29S 29°52' E 031°02'0 0.0
2014-Sep-29 14:17S 29°52' E 031°02'0 0.0
2014-Sep-29 13:23S 29°52' E 031°02'0 0.0
2014-Sep-29 12:29S 29°52' E 031°02'0 0.0
2014-Sep-29 11:23S 29°52' E 031°02'0 0.1
2014-Sep-29 10:33S 29°52' E 031°02'5 5.3
2014-Sep-29 09:33S 29°50' E 031°08'1414.2
2014-Sep-29 08:33S 29°48' E 031°24'5 5.4
2014-Sep-29 07:33S 29°47' E 031°18'1413.6
2014-Sep-29 06:33S 29°36' E 031°28'1716.9
2014-Sep-29 05:33S 29°25' E 031°43'1716.9
2014-Sep-29 04:34S 29°15' E 031°58'  
2014-Sep-26 00:11S 29°03' E 032°16'913.8
2014-Sep-25 23:33S 29°10' E 032°10'1413.9
2014-Sep-25 22:33S 29°21' E 032°00'1413.7
2014-Sep-25 21:32S 29°30' E 031°49'1514.8
2014-Sep-25 20:33S 29°41' E 031°38'1716.6
2014-Sep-25 19:33S 29°54' E 031°26'1616.1
2014-Sep-25 18:33S 30°06' E 031°13'1616.4
2014-Sep-25 17:33S 30°18' E 031°01'1716.6
2014-Sep-25 16:33S 30°32' E 030°50'48214.4
2014-Sep-24 07:04S 34°32' E 022°35'21915.1
2014-Sep-23 16:33S 34°09' E 018°10'1919.2
2014-Sep-23 15:33S 33°51' E 018°02'  
Track history (hours):
 
Tides and Currents Weather Stations Pressure Air Temp Water Temp Dewpoint Dewpoint Depression Visibility Wind Speed Wind Dir Waves Ship Positions

Bergamot Ace

Last reported at 2014-Oct-02 01:16 UTC. Time now 2014-Oct-20 11:23 UTC.
Position S 33°59' E 018°06'.
Warning: this ship's position is 18 days out of date.

Length 186 m; draft 7.8 m.

Type: Cargo ship. MMSI: 319740000.

Date/timePositionNaut miles runAvg speedWind from/ knotsBaromVisibWave heightAir tempDewpointWater temp
2014-Oct-02 01:16S 33°59' E 018°06'1318.5
2014-Oct-02 00:33S 34°11' E 018°12'3618.0
2014-Oct-01 22:32S 34°37' E 018°44'18217.4
2014-Oct-01 12:06S 34°41' E 022°25'4817.6
2014-Oct-01 09:22S 34°32' E 023°22'45715.9
2014-Sep-30 04:31S 30°19' E 030°53'1515.5
2014-Sep-30 03:33S 30°06' E 031°01'1413.9
2014-Sep-30 02:33S 29°52' E 031°07'4 3.5
2014-Sep-30 01:29S 29°52' E 031°02'0 0.0
2014-Sep-30 00:23S 29°52' E 031°02'0 0.0
2014-Sep-29 23:29S 29°52' E 031°02'0 0.0
2014-Sep-29 22:29S 29°52' E 031°02'0 0.0
2014-Sep-29 21:23S 29°52' E 031°02'0 0.0
2014-Sep-29 20:05S 29°52' E 031°02'0 0.0
2014-Sep-29 19:23S 29°52' E 031°02'0 0.0
2014-Sep-29 18:23S 29°52' E 031°02'0 0.0
2014-Sep-29 17:29S 29°52' E 031°02'0 0.0
2014-Sep-29 16:29S 29°52' E 031°02'0 0.0
2014-Sep-29 15:29S 29°52' E 031°02'0 0.0
2014-Sep-29 14:17S 29°52' E 031°02'0 0.0
2014-Sep-29 13:23S 29°52' E 031°02'0 0.0
2014-Sep-29 12:29S 29°52' E 031°02'0 0.0
2014-Sep-29 11:23S 29°52' E 031°02'0 0.1
2014-Sep-29 10:33S 29°52' E 031°02'5 5.3
2014-Sep-29 09:33S 29°50' E 031°08'1414.2
2014-Sep-29 08:33S 29°48' E 031°24'5 5.4
2014-Sep-29 07:33S 29°47' E 031°18'1413.6
2014-Sep-29 06:33S 29°36' E 031°28'1716.9
2014-Sep-29 05:33S 29°25' E 031°43'1716.9
2014-Sep-29 04:34S 29°15' E 031°58'  
2014-Sep-26 00:11S 29°03' E 032°16'913.8
2014-Sep-25 23:33S 29°10' E 032°10'1413.9
2014-Sep-25 22:33S 29°21' E 032°00'1413.7
2014-Sep-25 21:32S 29°30' E 031°49'1514.8
2014-Sep-25 20:33S 29°41' E 031°38'1716.6
2014-Sep-25 19:33S 29°54' E 031°26'1616.1
2014-Sep-25 18:33S 30°06' E 031°13'1616.4
2014-Sep-25 17:33S 30°18' E 031°01'1716.6
2014-Sep-25 16:33S 30°32' E 030°50'48214.4
2014-Sep-24 07:04S 34°32' E 022°35'21915.1
2014-Sep-23 16:33S 34°09' E 018°10'1919.2
2014-Sep-23 15:33S 33°51' E 018°02'  

Dump ship's entire track history